Zilina, Slovakia

10:37 PM CEST on August 30, 2016 (GMT +0200)
Zilina | | Change Station

Elev 1020 ft 49.23 °N, 18.61 °E | Updated 7 minutes ago

Clear
Clear
55 °F
Feels Like 55 °F
N
5
Wind Variable Wind from SE

Today
High -- | Low -- °F
--% Chance of Precip.
Yesterday
High -- | Low -- °F
Precip. -- in
Pressure 30.27 in
Visibility -9999.0 miles
Clouds
Dew Point 48 °F
Humidity 77%
Rainfall 0.00 in
Snow Depth Not available.
5:59 AM 7:31 PM
Waning Crescent, 2% visible
METAR LZZI 302030Z 13004KT CAVOK 13/09 Q1025
Pressure 30.27 in
Visibility -9999.0 miles
Clouds
Dew Point 48 °F
Humidity 77%
Rainfall 0.00 in
Snow Depth Not available.
5:59 AM 7:31 PM
Waning Crescent, 2% visible
METAR LZZI 302030Z 13004KT CAVOK 13/09 Q1025

10-Day Weather Forecast

×

Almanac

Astronomy

Aug. 30, 2016 Rise Set
Actual Time
Civil Twilight
Nautical Twilight
Astronomical Twilight
Moon
Length of Visible Light
Length of Day
Tomorrow will be .
, % of the Moon is Illuminated

Today's Extremes

Country Highs Country Lows

Community

WunderPhotos

Upload Photos

1,935,889 photos uploaded!

WunderBlog® & News

Nearby

Air Quality

  Air Quality AQ Index Pollutant
Not available.

Snow Depth

Station Depth Elevation

Earthquake Activity

City Distance Mag. Time & Date
Minimum magnitude displayed is 2.5.

Coastal Water Temperatures

Place Temperature

Stations

Nearby Weather Stations

Station Location Temp. Windchill Dew Point Humidity Wind Precip. Elev Updated Type